Time;durP1;ratioP1;P1;durP2;ratioP2;P2;SDS_P1;SDS_P2;PMS_P1;PMS_P2;Temp;Humidity;BMP_temperature;BMP_pressure;BME280_temperature;BME280_humidity;BME280_pressure;Samples;Min_cycle;Max_cycle;Signal;HPM_P1;HPM_P2
2021/12/30 00:01:06;;;;;;;;;0.00;0.00;;;;;15.08;81.46;101317.34;5037128;28;45258;-54
2021/12/30 00:03:32;;;;;;;;;1.00;1.00;;;;;15.09;81.39;101327.91;5036600;28;46111;-53
2021/12/30 00:05:58;;;;;;;;;1.33;0.00;;;;;15.09;81.37;101324.41;5036689;28;45414;-51
2021/12/30 00:08:24;;;;;;;;;0.00;0.00;;;;;15.09;81.28;101321.72;5036968;28;45357;-51
2021/12/30 00:10:51;;;;;;;;;1.00;0.00;;;;;15.08;81.32;101331.56;5036976;28;45389;-52
2021/12/30 00:13:17;;;;;;;;;0.00;0.00;;;;;15.10;81.27;101332.28;5036089;28;47165;-51
2021/12/30 00:15:43;;;;;;;;;0.00;0.00;;;;;15.08;81.15;101334.25;5036886;28;45511;-53
2021/12/30 00:18:10;;;;;;;;;0.33;0.00;;;;;15.05;81.30;101329.25;5036577;28;45244;-53
2021/12/30 00:20:36;;;;;;;;;0.00;0.00;;;;;15.10;81.44;101334.13;5036852;28;45334;-52
2021/12/30 00:23:03;;;;;;;;;1.00;0.00;;;;;15.05;81.20;101325.72;5036437;28;46877;-53
2021/12/30 00:25:37;;;;;;;;;1.00;1.00;;;;;15.08;81.43;101331.56;5035851;28;45381;-52
2021/12/30 00:28:07;;;;;;;;;1.00;1.00;;;;;15.10;81.43;101334.94;5036564;28;45338;-52
2021/12/30 00:30:33;;;;;;;;;0.00;0.00;;;;;15.12;81.26;101334.78;5036824;28;45238;-53
2021/12/30 00:32:58;;;;;;;;;0.00;0.00;;;;;15.11;81.26;101331.25;5036214;28;45761;-52
2021/12/30 00:35:23;;;;;;;;;1.00;1.00;;;;;15.11;81.42;101333.94;5036359;28;45326;-54
2021/12/30 00:37:50;;;;;;;;;1.50;0.00;;;;;15.12;81.56;101332.09;5036504;28;45214;-52
2021/12/30 00:40:15;;;;;;;;;0.00;0.00;;;;;15.11;81.33;101336.63;5036706;28;45389;-52
2021/12/30 00:42:40;;;;;;;;;0.00;0.00;;;;;15.13;81.21;101339.16;5036139;28;45385;-53
2021/12/30 00:45:06;;;;;;;;;0.00;0.00;;;;;15.10;81.22;101329.59;5036277;28;45464;-53
2021/12/30 00:47:32;;;;;;;;;0.00;0.00;;;;;15.09;81.74;101335.13;5036349;28;45402;-55
2021/12/30 00:49:57;;;;;;;;;0.67;0.67;;;;;15.10;81.28;101340.31;5036444;28;45273;-53
2021/12/30 00:52:24;;;;;;;;;0.67;0.67;;;;;15.13;81.34;101349.88;5035861;28;47759;-53
2021/12/30 00:54:49;;;;;;;;;0.00;0.00;;;;;15.14;81.43;101359.59;5036123;28;45345;-52
2021/12/30 00:57:15;;;;;;;;;0.33;0.00;;;;;15.11;81.51;101351.88;5039246;28;45626;-50
2021/12/30 00:59:41;;;;;;;;;0.67;0.33;;;;;15.13;81.37;101357.91;5039825;28;45342;-55
2021/12/30 01:02:06;;;;;;;;;3.00;1.67;;;;;15.12;81.19;101357.06;5039329;28;46109;-54
2021/12/30 01:04:31;;;;;;;;;0.00;0.00;;;;;15.10;81.54;101355.56;5039534;28;45287;-55
2021/12/30 01:06:57;;;;;;;;;0.00;0.00;;;;;15.11;81.53;101368.78;5039652;28;45762;-53
2021/12/30 01:09:22;;;;;;;;;0.00;0.00;;;;;15.12;81.27;101366.94;5039597;28;45374;-53
2021/12/30 01:11:48;;;;;;;;;0.00;0.00;;;;;15.10;81.49;101377.81;5039365;28;45199;-53
2021/12/30 01:14:18;;;;;;;;;0.00;0.00;;;;;15.08;81.39;101369.09;5039022;28;45232;-55
2021/12/30 01:16:47;;;;;;;;;0.00;0.00;;;;;15.11;81.86;101376.81;5039544;28;45457;-54
2021/12/30 01:19:42;;;;;;;;;2.00;0.00;;;;;15.10;81.64;101382.34;5039266;28;45318;-55
2021/12/30 01:22:15;;;;;;;;;0.33;0.33;;;;;15.12;81.85;101391.06;5038948;28;46411;-54
2021/12/30 01:24:42;;;;;;;;;0.00;0.00;;;;;15.12;81.82;101401.78;5039249;28;45293;-55
2021/12/30 01:27:07;;;;;;;;;0.00;0.00;;;;;15.12;81.55;101409.81;5039385;28;45366;-54
2021/12/30 01:29:33;;;;;;;;;0.00;0.00;;;;;15.11;81.84;101405.47;5039258;28;45305;-48
2021/12/30 01:31:59;;;;;;;;;0.33;0.33;;;;;15.10;81.85;101409.16;5038658;28;45641;-52
2021/12/30 01:34:27;;;;;;;;;1.00;1.00;;;;;15.09;82.20;101413.66;5038908;28;45258;-53
2021/12/30 01:36:54;;;;;;;;;1.00;1.00;;;;;15.10;82.20;101426.06;5039054;28;45464;-55
2021/12/30 01:39:21;;;;;;;;;0.33;0.33;;;;;15.09;82.13;101421.72;5039272;28;45388;-52
2021/12/30 01:41:48;;;;;;;;;0.00;0.00;;;;;15.08;82.09;101425.38;5038781;28;47333;-54
2021/12/30 01:44:13;;;;;;;;;1.33;0.00;;;;;15.09;82.07;101428.91;5038775;28;45456;-54
2021/12/30 01:46:41;;;;;;;;;0.00;0.00;;;;;15.08;81.95;101435.25;5038822;28;45608;-54
2021/12/30 01:49:08;;;;;;;;;1.00;0.00;;;;;15.07;82.46;101431.72;5039119;28;45307;-53
2021/12/30 01:51:33;;;;;;;;;0.00;0.00;;;;;15.03;82.59;101416.13;5038699;28;45270;-53
2021/12/30 01:53:59;;;;;;;;;0.00;0.00;;;;;15.08;82.45;101433.41;5038679;28;45459;-51
2021/12/30 01:56:24;;;;;;;;;2.00;0.00;;;;;15.07;82.68;101426.38;5039289;28;45310;-53
2021/12/30 01:58:50;;;;;;;;;0.00;0.00;;;;;15.07;82.60;101437.09;5039190;28;45307;-54
2021/12/30 02:01:15;;;;;;;;;0.00;0.00;;;;;15.07;82.63;101433.56;5038990;28;46221;-52
2021/12/30 02:03:41;;;;;;;;;0.33;0.00;;;;;15.06;82.68;101432.75;5039077;28;45442;-54
2021/12/30 02:06:06;;;;;;;;;1.33;1.33;;;;;15.05;82.97;101436.41;5044375;28;45314;-54
2021/12/30 02:08:32;;;;;;;;;0.67;0.67;;;;;15.02;82.73;101430.53;5045055;28;45351;-54
2021/12/30 02:10:57;;;;;;;;;0.00;0.00;;;;;15.05;82.77;101433.75;5044230;28;46132;-53
2021/12/30 02:13:23;;;;;;;;;2.00;0.00;;;;;15.02;82.89;101436.72;5044939;28;45488;-51
2021/12/30 02:15:49;;;;;;;;;2.00;0.00;;;;;15.04;82.73;101441.91;5044511;28;45522;-54
2021/12/30 02:18:15;;;;;;;;;2.33;1.00;;;;;15.01;82.97;101443.09;5041261;28;45301;-52
2021/12/30 02:20:54;;;;;;;;;0.00;0.00;;;;;15.04;82.96;101449.97;5038242;28;46313;-54
2021/12/30 02:23:22;;;;;;;;;0.00;0.00;;;;;15.04;82.93;101450.78;5038783;28;45313;-55
2021/12/30 02:25:50;;;;;;;;;0.00;0.00;;;;;15.03;82.84;101457.16;5039279;28;45380;-54
2021/12/30 02:28:18;;;;;;;;;2.00;0.00;;;;;15.03;83.08;101456.31;5038299;28;45316;-53
2021/12/30 02:30:44;;;;;;;;;0.00;0.00;;;;;15.02;83.00;101463.53;5037883;28;47009;-50
2021/12/30 02:33:11;;;;;;;;;2.33;0.00;;;;;15.04;82.62;101461.50;5037680;28;45424;-52
2021/12/30 02:35:37;;;;;;;;;0.67;0.00;;;;;15.04;82.61;101460.69;5037944;28;45358;-52
2021/12/30 02:38:04;;;;;;;;;0.00;0.00;;;;;15.03;82.90;101467.03;5038151;28;45518;-52
2021/12/30 02:40:35;;;;;;;;;0.00;0.00;;;;;15.05;82.86;101467.75;5037616;28;46282;-52
2021/12/30 02:43:00;;;;;;;;;0.00;0.00;;;;;15.08;82.79;101472.75;5037721;28;45432;-51
2021/12/30 02:45:26;;;;;;;;;0.33;0.00;;;;;15.08;82.65;101478.94;5037731;28;45307;-53
2021/12/30 02:47:52;;;;;;;;;0.00;0.00;;;;;15.08;82.68;101478.13;5038251;28;45406;-53
2021/12/30 02:50:17;;;;;;;;;0.00;0.00;;;;;15.08;82.67;101481.63;5037625;28;45388;-53
2021/12/30 02:52:43;;;;;;;;;0.33;0.33;;;;;15.02;82.65;101473.41;5037529;28;45239;-53
2021/12/30 02:55:09;;;;;;;;;0.00;0.00;;;;;15.09;82.52;101498.59;5037667;28;45334;-51
2021/12/30 02:57:35;;;;;;;;;1.00;0.00;;;;;15.07;82.48;101498.72;5037906;28;45361;-54
2021/12/30 03:00:00;;;;;;;;;0.00;0.00;;;;;15.02;82.32;101487.63;5037425;28;45969;-52
2021/12/30 03:02:26;;;;;;;;;0.00;0.00;;;;;15.03;82.95;101489.31;5037395;28;45306;-52
2021/12/30 03:04:51;;;;;;;;;0.00;0.00;;;;;15.08;82.59;101497.72;5037619;28;45870;-54
2021/12/30 03:07:18;;;;;;;;;0.00;0.00;;;;;15.07;82.25;101496.03;5037742;28;45289;-52
2021/12/30 03:09:46;;;;;;;;;0.00;0.00;;;;;15.04;82.26;101484.78;5037157;28;47272;-51
2021/12/30 03:12:11;;;;;;;;;0.00;0.00;;;;;15.08;82.30;101480.78;5037275;28;45180;-54
2021/12/30 03:14:40;;;;;;;;;1.67;0.00;;;;;15.08;82.13;101475.44;5037075;28;45430;-53
2021/12/30 03:17:06;;;;;;;;;1.00;0.00;;;;;15.08;82.26;101484.31;5037391;28;45451;-53
2021/12/30 03:19:32;;;;;;;;;0.75;0.00;;;;;15.09;82.24;101472.63;5035799;28;46203;-51
2021/12/30 03:21:58;;;;;;;;;0.00;0.00;;;;;15.11;81.97;101485.84;5037056;28;45342;-52
2021/12/30 03:24:23;;;;;;;;;0.00;0.00;;;;;15.12;81.97;101488.34;5037336;28;45336;-52
2021/12/30 03:26:49;;;;;;;;;1.33;0.67;;;;;15.12;81.83;101485.69;5037375;28;45456;-53
2021/12/30 03:29:14;;;;;;;;;0.00;0.00;;;;;15.09;81.72;101483.34;5036930;28;45824;-52
2021/12/30 03:31:39;;;;;;;;;0.00;0.00;;;;;15.10;81.72;101487.69;5037113;28;45404;-50
2021/12/30 03:34:05;;;;;;;;;0.00;0.00;;;;;15.11;81.46;101492.03;5037308;28;45567;-52
2021/12/30 03:36:32;;;;;;;;;0.00;0.00;;;;;15.10;81.69;101493.06;5037454;28;45589;-53
2021/12/30 03:38:57;;;;;;;;;0.00;0.00;;;;;15.12;81.49;101498.25;5036938;28;46396;-53
2021/12/30 03:41:25;;;;;;;;;0.00;0.00;;;;;15.12;81.52;101488.34;5037032;28;45285;-52
2021/12/30 03:43:51;;;;;;;;;0.00;0.00;;;;;15.13;81.24;101492.75;5037013;28;45503;-54
2021/12/30 03:46:17;;;;;;;;;1.33;0.00;;;;;15.14;81.25;101496.25;5037072;28;45388;-50
2021/12/30 03:48:44;;;;;;;;;0.00;0.00;;;;;15.11;81.18;101486.69;5036958;28;46040;-54
2021/12/30 03:51:21;;;;;;;;;0.00;0.00;;;;;15.14;80.92;101499.78;5036762;28;45362;-50
2021/12/30 03:53:49;;;;;;;;;1.67;0.00;;;;;15.15;81.08;101498.78;5036885;28;45376;-53
2021/12/30 03:56:16;;;;;;;;;0.00;0.00;;;;;15.17;80.80;101493.28;5037064;28;45259;-52
2021/12/30 03:58:44;;;;;;;;;1.00;0.00;;;;;15.16;80.72;101497.75;5036765;28;45410;-52
2021/12/30 04:01:14;;;;;;;;;0.00;0.00;;;;;15.18;80.88;101492.28;5036526;28;45273;-53
2021/12/30 04:03:39;;;;;;;;;0.00;0.00;;;;;15.18;80.62;101498.47;5037039;28;45242;-52
2021/12/30 04:06:05;;;;;;;;;0.00;0.00;;;;;15.17;80.65;101482.56;5037015;28;45223;-49
2021/12/30 04:08:30;;;;;;;;;0.00;0.00;;;;;15.17;80.72;101483.41;5018525;28;46225;-52
2021/12/30 04:10:56;;;;;;;;;0.00;0.00;;;;;15.18;80.47;101486.91;5036869;28;45319;-51
2021/12/30 04:13:22;;;;;;;;;0.00;0.00;;;;;15.11;80.67;101478.66;5036527;28;45411;-54
2021/12/30 04:15:48;;;;;;;;;0.00;0.00;;;;;15.18;80.32;101485.06;5036729;28;45348;-52
2021/12/30 04:18:14;;;;;;;;;0.00;0.00;;;;;15.21;80.18;101491.94;5036275;28;46134;-50
2021/12/30 04:20:39;;;;;;;;;0.00;0.00;;;;;15.20;80.36;101488.41;5036523;28;45395;-53
2021/12/30 04:23:04;;;;;;;;;0.25;0.25;;;;;15.21;80.11;101491.94;5035773;28;45389;-53
2021/12/30 04:25:30;;;;;;;;;0.00;0.00;;;;;15.22;80.27;101496.31;5036700;28;45417;-54
2021/12/30 04:27:55;;;;;;;;;1.75;0.00;;;;;15.22;80.09;101493.63;5036436;28;46231;-54
2021/12/30 04:30:21;;;;;;;;;0.00;0.00;;;;;15.23;80.33;101488.09;5036701;28;45370;-52
2021/12/30 04:32:46;;;;;;;;;0.75;0.00;;;;;15.21;80.20;101478.53;5039846;28;45566;-52
2021/12/30 04:35:13;;;;;;;;;0.00;0.00;;;;;15.23;80.21;101476.53;5040158;28;45372;-51
2021/12/30 04:37:40;;;;;;;;;0.00;0.00;;;;;15.20;80.17;101476.84;5039728;28;45312;-51
2021/12/30 04:40:07;;;;;;;;;1.00;0.00;;;;;15.17;79.96;101475.34;5039647;28;45250;-51
2021/12/30 04:42:32;;;;;;;;;2.00;0.00;;;;;15.17;79.98;101475.34;5039936;28;45322;-52
2021/12/30 04:44:58;;;;;;;;;0.00;0.00;;;;;15.20;79.88;101477.69;5039539;28;45544;-51
2021/12/30 04:47:25;;;;;;;;;0.00;0.00;;;;;15.20;80.17;101480.38;5038968;28;46284;-54
2021/12/30 04:49:52;;;;;;;;;1.00;0.00;;;;;15.20;79.96;101476.84;5039478;28;45468;-52
2021/12/30 04:52:18;;;;;;;;;0.67;0.00;;;;;15.20;79.93;101479.53;5039635;28;45387;-53
2021/12/30 04:54:43;;;;;;;;;0.33;0.33;;;;;15.18;80.02;101486.91;5021856;28;45269;-53
2021/12/30 04:57:08;;;;;;;;;0.75;0.00;;;;;15.13;80.23;101490.06;5039419;28;46299;-51
2021/12/30 04:59:34;;;;;;;;;0.00;0.00;;;;;15.09;80.23;101485.19;5039575;28;45221;-53
2021/12/30 05:01:59;;;;;;;;;0.33;0.00;;;;;15.01;80.32;101488.66;5038823;28;45650;-53
2021/12/30 05:04:25;;;;;;;;;1.00;0.00;;;;;14.92;80.46;101492.28;5039618;28;45239;-53
2021/12/30 05:06:50;;;;;;;;;1.00;1.00;;;;;14.78;80.48;101487.47;5038993;28;46303;-54
2021/12/30 05:09:16;;;;;;;;;0.00;0.00;;;;;14.84;80.83;101510.97;5039298;28;45508;-51
2021/12/30 05:11:42;;;;;;;;;0.00;0.00;;;;;14.81;80.87;101517.47;5039549;28;45440;-53
2021/12/30 05:14:09;;;;;;;;;0.00;0.00;;;;;14.79;81.08;101523.94;5039472;28;45518;-51
2021/12/30 05:16:35;;;;;;;;;2.00;0.00;;;;;14.62;81.21;101505.09;5038773;28;46109;-49
2021/12/30 05:19:00;;;;;;;;;0.00;0.00;;;;;14.75;81.24;101528.81;5038698;28;45567;-55
2021/12/30 05:21:25;;;;;;;;;0.00;0.00;;;;;14.71;81.27;101524.75;5039258;28;45299;-53
2021/12/30 05:23:52;;;;;;;;;0.00;0.00;;;;;14.79;80.93;101527.50;5039472;28;45425;-54
2021/12/30 05:26:18;;;;;;;;;1.67;0.00;;;;;14.82;81.04;101529.00;5038514;28;45336;-53
2021/12/30 05:28:44;;;;;;;;;1.00;1.00;;;;;14.72;81.07;101518.41;5038803;28;45336;-52
2021/12/30 05:31:09;;;;;;;;;2.00;0.00;;;;;14.75;81.03;101523.44;5039127;28;45449;-52
2021/12/30 05:33:35;;;;;;;;;0.33;0.00;;;;;14.70;81.07;101523.88;5039193;28;45204;-54
2021/12/30 05:36:00;;;;;;;;;0.00;0.00;;;;;14.56;81.48;101511.06;5039021;28;46014;-52
2021/12/30 05:38:26;;;;;;;;;2.00;0.00;;;;;14.59;81.67;101532.19;5038898;28;45449;-51
2021/12/30 05:40:51;;;;;;;;;0.33;0.33;;;;;14.55;81.49;101536.16;5038751;28;45364;-54
2021/12/30 05:43:17;;;;;;;;;1.00;1.00;;;;;14.52;81.82;101549.84;5038232;28;45337;-55
2021/12/30 05:45:43;;;;;;;;;0.67;0.67;;;;;14.49;82.03;101558.16;5038637;28;45967;-54
2021/12/30 05:48:08;;;;;;;;;0.00;0.00;;;;;14.44;82.08;101566.63;5039015;28;45393;-58
2021/12/30 05:50:34;;;;;;;;;2.00;0.00;;;;;14.42;82.33;101570.47;5038411;28;45357;-54
2021/12/30 05:53:00;;;;;;;;;2.00;0.67;;;;;14.37;82.06;101562.06;5038549;28;45383;-55
2021/12/30 05:55:28;;;;;;;;;0.00;0.00;;;;;14.39;82.16;101560.06;5038622;28;46156;-55
2021/12/30 05:57:54;;;;;;;;;1.00;1.00;;;;;14.37;82.86;101565.56;5038492;28;45389;-53
2021/12/30 06:00:22;;;;;;;;;1.33;0.00;;;;;14.31;82.48;101558.13;5038575;28;45314;-53
2021/12/30 06:02:47;;;;;;;;;4.00;1.00;;;;;14.26;82.63;101563.09;5038471;28;45449;-54
2021/12/30 06:05:13;;;;;;;;;1.00;0.67;;;;;14.27;82.25;101577.31;5038185;28;45950;-52
2021/12/30 06:07:39;;;;;;;;;2.00;0.33;;;;;14.23;82.56;101577.59;5020244;28;45317;-53
2021/12/30 06:10:05;;;;;;;;;2.33;1.00;;;;;14.21;82.59;101584.97;5038564;28;45270;-53
2021/12/30 06:12:31;;;;;;;;;1.00;1.00;;;;;14.17;82.34;101577.38;5037700;28;45286;-51
2021/12/30 06:14:57;;;;;;;;;1.00;1.00;;;;;14.06;82.78;101572.22;5037436;28;45312;-52
2021/12/30 06:17:23;;;;;;;;;2.67;0.67;;;;;14.13;82.53;101587.53;5037960;28;45351;-51
2021/12/30 06:19:48;;;;;;;;;2.33;1.00;;;;;14.13;82.60;101594.72;5038087;28;45302;-53
2021/12/30 06:22:14;;;;;;;;;1.33;1.00;;;;;14.08;82.80;101584.47;5038385;28;45358;-54
2021/12/30 06:24:40;;;;;;;;;1.00;1.00;;;;;13.92;82.59;101569.06;5038046;28;45879;-53
2021/12/30 06:27:06;;;;;;;;;2.33;0.67;;;;;14.04;83.01;101583.09;5037821;28;45378;-51
2021/12/30 06:29:33;;;;;;;;;1.00;1.00;;;;;14.02;82.68;101582.38;5037980;28;45374;-54
2021/12/30 06:31:58;;;;;;;;;1.00;1.00;;;;;14.01;82.89;101578.03;5038029;28;45348;-53
2021/12/30 06:34:24;;;;;;;;;1.00;1.00;;;;;13.87;83.15;101562.47;5037509;28;45375;-48
2021/12/30 06:36:49;;;;;;;;;2.33;1.00;;;;;13.97;82.87;101577.47;5037931;28;45320;-53
2021/12/30 06:39:14;;;;;;;;;3.00;2.00;;;;;13.95;82.85;101584.81;5037884;28;45693;-53
2021/12/30 06:41:40;;;;;;;;;2.67;1.67;;;;;13.93;83.30;101588.63;5037993;28;45401;-54
2021/12/30 06:44:05;;;;;;;;;3.67;1.67;;;;;13.83;83.24;101582.50;5037627;28;46230;-53
2021/12/30 06:46:31;;;;;;;;;4.33;2.00;;;;;13.91;82.94;101598.66;5019752;28;45375;-52
2021/12/30 06:48:56;;;;;;;;;2.00;2.00;;;;;13.87;82.77;101592.75;5037905;28;45716;-53
2021/12/30 06:51:24;;;;;;;;;1.33;1.33;;;;;13.88;83.08;101602.44;5038032;28;45417;-52
2021/12/30 06:53:54;;;;;;;;;1.33;1.00;;;;;13.87;82.71;101605.28;5037233;28;46267;-54
2021/12/30 06:56:20;;;;;;;;;6.00;5.33;;;;;13.82;82.97;101608.41;5037653;28;45361;-52
2021/12/30 06:58:46;;;;;;;;;4.33;1.33;;;;;13.84;82.74;101602.88;5037710;28;45318;-53
2021/12/30 07:01:11;;;;;;;;;3.33;1.00;;;;;13.83;82.79;101606.56;5037572;28;45290;-52
2021/12/30 07:03:36;;;;;;;;;3.00;2.00;;;;;13.81;82.61;101605.84;5037584;28;45279;-53
2021/12/30 07:06:02;;;;;;;;;7.67;1.00;;;;;13.82;82.91;101612.88;5037372;28;45560;-53
2021/12/30 07:08:27;;;;;;;;;6.00;1.00;;;;;13.78;82.97;101614.16;5037547;28;45235;-54
2021/12/30 07:10:53;;;;;;;;;2.67;1.00;;;;;13.72;82.63;101600.38;5037630;28;45451;-52
2021/12/30 07:13:18;;;;;;;;;4.00;2.67;;;;;13.77;82.74;101623.16;5019251;28;46865;-51
2021/12/30 07:15:44;;;;;;;;;2.67;2.33;;;;;13.75;82.85;101626.00;5037371;28;45283;-54
2021/12/30 07:18:09;;;;;;;;;2.67;1.00;;;;;13.72;82.23;101624.44;5037204;28;45357;-50
2021/12/30 07:20:35;;;;;;;;;2.33;1.00;;;;;13.71;82.41;101637.97;5037574;28;45345;-54
2021/12/30 07:23:00;;;;;;;;;2.00;2.00;;;;;13.72;82.54;101645.00;5036985;28;45613;-53
2021/12/30 07:25:26;;;;;;;;;3.00;1.33;;;;;13.72;82.60;101637.81;5037039;28;45298;-54
2021/12/30 07:27:54;;;;;;;;;1.00;1.00;;;;;13.71;82.51;101638.81;5037184;28;45442;-52
2021/12/30 07:30:22;;;;;;;;;3.33;2.00;;;;;13.70;82.12;101650.50;5037357;28;45490;-54
2021/12/30 07:32:48;;;;;;;;;6.00;4.00;;;;;13.72;82.39;101655.69;5036866;28;46192;-52
2021/12/30 07:35:16;;;;;;;;;5.00;3.00;;;;;13.75;81.98;101642.03;5036861;28;45381;-53
2021/12/30 07:37:41;;;;;;;;;1.67;1.67;;;;;13.78;81.80;101646.25;5037103;28;45336;-52
2021/12/30 07:40:07;;;;;;;;;4.00;2.00;;;;;13.82;81.80;101643.16;5037358;28;45426;-52
2021/12/30 07:42:33;;;;;;;;;7.00;1.00;;;;;13.86;81.14;101646.34;5036972;28;47017;-50
2021/12/30 07:44:58;;;;;;;;;4.67;2.00;;;;;13.88;81.00;101663.97;5036859;28;45326;-52
2021/12/30 07:47:23;;;;;;;;;5.00;4.00;;;;;13.90;81.04;101645.09;5037089;28;45253;-53
2021/12/30 07:49:49;;;;;;;;;3.67;2.00;;;;;13.90;81.01;101648.59;5037138;28;45420;-53
2021/12/30 07:52:15;;;;;;;;;4.00;2.00;;;;;13.94;80.95;101647.31;5036819;28;46239;-53
2021/12/30 07:54:43;;;;;;;;;2.33;1.00;;;;;13.94;80.75;101655.34;5036791;28;45344;-51
2021/12/30 07:57:09;;;;;;;;;2.00;2.00;;;;;13.97;80.35;101656.88;5035754;28;45436;-54
2021/12/30 07:59:35;;;;;;;;;2.00;2.00;;;;;14.04;80.27;101667.84;5037258;28;45485;-52
2021/12/30 08:02:00;;;;;;;;;2.00;2.00;;;;;14.07;80.06;101660.34;5036732;28;45270;-54
2021/12/30 08:04:26;;;;;;;;;7.00;3.00;;;;;14.11;80.19;101674.28;5036831;28;45334;-55
2021/12/30 08:06:51;;;;;;;;;4.33;4.00;;;;;14.14;79.68;101690.06;5039482;28;45650;-53
2021/12/30 08:09:16;;;;;;;;;4.00;3.00;;;;;14.16;79.55;101682.75;5040489;28;45388;-55
2021/12/30 08:11:42;;;;;;;;;5.00;2.00;;;;;14.18;79.65;101692.28;5040251;28;46068;-55
2021/12/30 08:14:07;;;;;;;;;6.00;2.00;;;;;14.20;79.54;101701.03;5022181;28;46048;-54
2021/12/30 08:16:33;;;;;;;;;5.33;1.00;;;;;14.14;79.39;101695.41;5040330;28;45444;-55
2021/12/30 08:18:58;;;;;;;;;4.67;2.67;;;;;14.25;78.90;101713.97;5040182;28;45558;-51
2021/12/30 08:21:24;;;;;;;;;5.33;1.33;;;;;14.27;79.12;101722.69;5040191;28;45365;-53
2021/12/30 08:23:51;;;;;;;;;7.00;2.00;;;;;14.25;79.59;101718.47;5040001;28;45486;-52
2021/12/30 08:26:18;;;;;;;;;9.67;3.00;;;;;14.29;78.80;101722.56;5039810;28;45378;-54
2021/12/30 08:28:43;;;;;;;;;4.00;2.67;;;;;14.31;78.54;101717.88;5040281;28;45358;-54
2021/12/30 08:31:09;;;;;;;;;5.00;2.67;;;;;14.32;78.54;101719.56;5039743;28;46965;-55
2021/12/30 08:33:34;;;;;;;;;1.67;1.67;;;;;14.32;78.88;101723.06;5039636;28;45425;-56
2021/12/30 08:35:59;;;;;;;;;2.67;1.33;;;;;14.32;78.43;101732.94;5040139;28;45261;-51
2021/12/30 08:38:25;;;;;;;;;4.33;1.33;;;;;14.35;78.32;101748.72;5040149;28;45302;-52
2021/12/30 08:40:51;;;;;;;;;4.33;2.00;;;;;14.35;77.93;101746.03;5039751;28;46257;-54
2021/12/30 08:43:17;;;;;;;;;8.00;4.00;;;;;14.35;78.15;101748.72;5038515;28;45247;-53
2021/12/30 08:45:44;;;;;;;;;6.33;2.67;;;;;14.39;77.85;101750.09;5039111;28;45409;-52
2021/12/30 08:48:09;;;;;;;;;8.00;3.00;;;;;14.40;78.09;101749.94;5039793;28;45422;-53
2021/12/30 08:50:35;;;;;;;;;2.33;2.00;;;;;14.43;77.89;101751.50;5039532;28;45325;-54
2021/12/30 08:53:01;;;;;;;;;3.33;2.00;;;;;14.48;77.75;101755.44;5039621;28;45358;-54
2021/12/30 08:55:27;;;;;;;;;4.00;2.67;;;;;14.49;77.46;101753.59;5039666;28;45325;-54
2021/12/30 08:57:52;;;;;;;;;3.67;2.00;;;;;14.51;77.70;101746.28;5039709;28;45384;-54
2021/12/30 09:00:23;;;;;;;;;4.33;3.00;;;;;14.55;77.40;101744.16;5039370;28;46067;-52
2021/12/30 09:02:48;;;;;;;;;5.67;4.00;;;;;14.58;77.22;101743.84;5039172;28;45404;-51
2021/12/30 09:05:14;;;;;;;;;9.33;2.00;;;;;14.59;77.05;101745.56;5039358;28;45330;-55
2021/12/30 09:07:39;;;;;;;;;12.67;2.67;;;;;14.62;77.09;101751.47;5038349;28;45562;-54
2021/12/30 09:10:08;;;;;;;;;4.33;3.00;;;;;14.62;78.01;101746.09;5039193;28;45585;-55
2021/12/30 09:12:34;;;;;;;;;7.33;1.33;;;;;14.54;76.92;101740.66;5039374;28;45425;-54
2021/12/30 09:15:00;;;;;;;;;8.33;3.00;;;;;14.60;77.28;101748.06;5039277;28;45420;-54
2021/12/30 09:17:25;;;;;;;;;9.33;2.67;;;;;14.62;77.05;101750.59;5038070;28;45367;-53
2021/12/30 09:19:51;;;;;;;;;8.00;5.00;;;;;14.63;76.84;101769.22;5038853;28;45203;-51
2021/12/30 09:22:16;;;;;;;;;4.33;3.33;;;;;14.64;77.00;101757.50;5039067;28;45301;-53
2021/12/30 09:24:42;;;;;;;;;5.67;4.00;;;;;14.64;77.07;101757.50;5039179;28;45368;-53
2021/12/30 09:27:07;;;;;;;;;9.00;2.00;;;;;14.69;77.00;101759.72;5039178;28;45370;-53
2021/12/30 09:29:32;;;;;;;;;4.00;2.00;;;;;14.71;77.12;101761.28;5038902;28;46290;-53
2021/12/30 09:31:58;;;;;;;;;2.00;2.00;;;;;14.73;77.23;101767.31;5039144;28;45373;-53
2021/12/30 09:34:24;;;;;;;;;9.33;4.00;;;;;14.76;76.91;101759.97;5038697;28;45448;-53
2021/12/30 09:36:49;;;;;;;;;2.00;2.00;;;;;14.80;76.79;101769.41;5039234;28;45343;-57
2021/12/30 09:39:16;;;;;;;;;8.33;3.00;;;;;14.84;76.40;101776.16;5038614;28;46092;-54
2021/12/30 09:41:44;;;;;;;;;2.33;2.33;;;;;14.91;76.13;101777.22;5037943;28;45353;-52
2021/12/30 09:44:11;;;;;;;;;3.00;1.33;;;;;14.96;76.52;101774.97;5038953;28;45414;-51
2021/12/30 09:46:37;;;;;;;;;5.00;2.00;;;;;15.02;76.10;101779.72;5039097;28;45465;-52
2021/12/30 09:49:05;;;;;;;;;5.33;2.00;;;;;15.03;75.80;101767.16;5020613;28;45518;-53
2021/12/30 09:51:31;;;;;;;;;7.33;3.00;;;;;15.07;75.63;101776.56;5038598;28;45374;-53
2021/12/30 09:53:56;;;;;;;;;3.67;3.33;;;;;15.11;75.65;101783.31;5038704;28;45311;-51
2021/12/30 09:56:22;;;;;;;;;4.67;1.33;;;;;15.13;75.46;101782.19;5039137;28;45334;-54
2021/12/30 09:58:48;;;;;;;;;4.67;3.00;;;;;15.13;75.15;101782.19;5038496;28;46201;-53
2021/12/30 10:01:14;;;;;;;;;3.33;3.33;;;;;15.18;75.21;101782.56;5038436;28;45338;-53
2021/12/30 10:03:40;;;;;;;;;3.33;2.00;;;;;15.18;75.25;101782.56;5038378;28;45453;-54
2021/12/30 10:06:10;;;;;;;;;5.33;3.67;;;;;15.25;74.94;101785.47;5038272;28;45317;-51
2021/12/30 10:08:40;;;;;;;;;4.67;3.67;;;;;15.29;74.76;101791.38;5038565;28;45345;-54
2021/12/30 10:11:13;;;;;;;;;7.67;3.67;;;;;15.39;74.63;101781.44;5038283;28;45456;-53
2021/12/30 10:13:51;;;;;;;;;7.00;4.00;;;;;15.57;74.21;101776.06;5038403;28;45375;-54
2021/12/30 10:16:16;;;;;;;;;5.00;3.33;;;;;15.86;73.22;101790.09;5038457;28;45313;-54
2021/12/30 10:19:10;;;;;;;;;6.33;4.00;;;;;15.99;73.06;101783.47;5038043;28;45279;-55
2021/12/30 10:21:42;;;;;;;;;2.67;2.67;;;;;16.14;72.56;101793.50;5034543;28;45345;-55
2021/12/30 10:24:12;;;;;;;;;3.33;2.00;;;;;16.36;71.62;101785.91;5037929;28;45456;-54
2021/12/30 10:26:56;;;;;;;;;5.33;2.67;;;;;16.85;70.87;101792.38;5038117;28;45397;-52
2021/12/30 10:29:23;;;;;;;;;3.00;2.67;;;;;18.04;68.24;101784.00;5037349;28;45495;-54
2021/12/30 10:31:50;;;;;;;;;6.75;3.25;;;;;18.67;64.57;101779.63;5038160;28;45378;-55
2021/12/30 10:34:17;;;;;;;;;2.00;1.00;;;;;18.74;67.34;101766.31;5037787;28;45405;-52
2021/12/30 10:36:45;;;;;;;;;6.75;4.25;;;;;19.53;65.16;101778.63;5038318;28;45312;-52
2021/12/30 10:39:29;;;;;;;;;2.50;2.00;;;;;19.99;62.01;101773.22;5037818;28;46231;-51
2021/12/30 10:42:06;;;;;;;;;15.25;8.75;;;;;19.34;63.96;101779.09;5037860;28;45333;-52
2021/12/30 10:44:56;;;;;;;;;50.67;39.00;;;;;18.69;64.27;101777.56;5037917;28;45354;-53
2021/12/30 10:47:28;;;;;;;;;6.50;5.25;;;;;18.33;64.30;101796.03;5037981;28;45279;-54
2021/12/30 10:50:09;;;;;;;;;2.75;2.25;;;;;18.03;65.76;101795.75;5037650;28;45523;-54
2021/12/30 10:52:56;;;;;;;;;3.00;3.00;;;;;18.01;65.65;101792.41;5037831;28;45529;-50
2021/12/30 10:55:23;;;;;;;;;5.50;2.75;;;;;18.09;65.51;101781.63;5037273;28;45302;-53
2021/12/30 10:57:49;;;;;;;;;3.00;3.00;;;;;18.43;63.74;101775.16;5037909;28;45286;-53
2021/12/30 11:00:25;;;;;;;;;3.50;2.00;;;;;18.16;65.29;101771.84;5037064;28;46298;-53
2021/12/30 11:02:50;;;;;;;;;2.50;2.00;;;;;17.88;65.23;101770.53;5019502;28;45398;-53
2021/12/30 11:05:18;;;;;;;;;4.00;2.00;;;;;17.76;66.79;101770.03;5037379;28;45334;-54
2021/12/30 11:07:51;;;;;;;;;2.25;2.25;;;;;17.70;66.25;101770.69;5037958;28;45328;-54
2021/12/30 11:10:38;;;;;;;;;2.50;2.25;;;;;18.18;64.95;101766.28;5037548;28;45362;-50
2021/12/30 11:13:14;;;;;;;;;5.75;2.25;;;;;18.00;65.89;101760.28;5037295;28;45285;-53
2021/12/30 11:15:40;;;;;;;;;5.50;3.00;;;;;17.88;65.45;101766.00;5037623;28;45278;-53
2021/12/30 11:18:07;;;;;;;;;7.00;3.50;;;;;17.73;66.38;101769.50;5037500;28;45559;-52
2021/12/30 11:20:46;;;;;;;;;1.75;1.50;;;;;17.49;67.08;101770.31;5037062;28;47384;-53
2021/12/30 11:23:14;;;;;;;;;3.75;3.25;;;;;17.42;67.00;101775.53;5037372;28;45403;-53